Impacts TAF Board INFO
FOR SITUATIONAL AWARENESS. NOT TO BE USED FOR FLIGHT PLANNING PURPOSES.
IDs:

KMSP - Minneapolis-St Paul, MN, US

Issued at 1429 UTC 17 Dec 2017
Updated at 1552 UTC 17 Dec 2017
Potential Impact None Slight Moderate High
Time<<18/04Z 18/05Z 18/06Z 18/07Z 18/08Z 18/09Z 18/10Z 18/11Z 18/12Z 18/13Z 18/14Z 18/15Z 18/16Z>>
Type PRVL PRVL PRVL PRVL PRVL PRVL PRVL PRVL PRVL PRVL PRVL PRVL PRVL
VIS >6 >6 >6 >6 >6 >6 >6 >6 >6 >6 >6 >6 >6
CIG 10 10 10 -- -- -- -- -- -- -- -- -- --
Cover OVC OVC OVC SCT SCT SCT SCT SCT SCT SCT SCT SCT SCT
FltCat MVFR MVFR MVFR VFR VFR VFR VFR VFR VFR VFR VFR VFR VFR
WX -- -- -- -- -- -- -- -- -- -- -- -- --
WDir VRB VRB VRB 190 190 190 190 190 190 190 190 190 200
WSpd 0 0 0 3 3 3 3 3 3 3 3 3 7
WGst -- -- -- -- -- -- -- -- -- -- -- -- --

Raw TAF
KMSP 171429Z 1714/1818 04003KT 2SM BR OVC004
  FM171600 VRB03KT 4SM BR OVC005
  FM171800 00000KT 3SM -SN OVC008
  FM172100 00000KT P6SM OVC010
  FM180700 19003KT P6SM SCT012
  FM181600 20007KT P6SM SCT080


METAR Board
Radar Display
Forecast Discussion

FOR SITUATIONAL AWARENESS. NOT TO BE USED FOR FLIGHT PLANNING PURPOSES.